Time;durP1;ratioP1;P1;durP2;ratioP2;P2;SDS_P1;SDS_P2;PMS_P1;PMS_P2;Temp;Humidity;BMP_temperature;BMP_pressure;BME280_temperature;BME280_humidity;BME280_pressure;Samples;Min_cycle;Max_cycle;Signal;HPM_P1;HPM_P2
2021/06/22 00:00:09;;;;;;;13.90;13.40;;;17.40;99.90;;;;;;4995782;28;20862;-66
2021/06/22 00:02:36;;;;;;;15.00;14.37;;;17.50;99.90;;;;;;4995796;28;20476;-66
2021/06/22 00:05:04;;;;;;;15.27;14.63;;;17.50;99.90;;;;;;4995665;28;20443;-66
2021/06/22 00:07:31;;;;;;;15.40;14.70;;;17.50;99.90;;;;;;4976105;28;20458;-65
2021/06/22 00:09:57;;;;;;;16.33;15.53;;;17.40;99.90;;;;;;4976315;28;20451;-66
2021/06/22 00:12:24;;;;;;;17.47;16.47;;;17.40;99.90;;;;;;4976463;28;20471;-66
2021/06/22 00:14:52;;;;;;;16.87;16.00;;;17.30;99.90;;;;;;4991016;28;20465;-66
2021/06/22 00:17:19;;;;;;;17.63;16.50;;;17.40;99.90;;;;;;4995716;28;20447;-67
2021/06/22 00:19:45;;;;;;;17.23;16.33;;;17.30;99.90;;;;;;4995353;28;20562;-66
2021/06/22 00:22:12;;;;;;;18.17;17.07;;;17.30;99.90;;;;;;4995020;28;20959;-66
2021/06/22 00:24:39;;;;;;;17.90;16.90;;;17.30;99.90;;;;;;4995333;28;20453;-66
2021/06/22 00:27:06;;;;;;;17.13;16.23;;;17.30;99.90;;;;;;4995128;28;20442;-65
2021/06/22 00:29:33;;;;;;;18.33;17.20;;;17.30;99.90;;;;;;4995333;28;20439;-66
2021/06/22 00:32:01;;;;;;;18.53;17.43;;;17.30;99.90;;;;;;4994927;28;20445;-66
2021/06/22 00:34:27;;;;;;;17.27;16.17;;;17.20;99.90;;;;;;4995244;28;21044;-66
2021/06/22 00:36:54;;;;;;;18.50;17.30;;;17.20;99.90;;;;;;4994911;28;20458;-66
2021/06/22 00:39:21;;;;;;;17.27;16.27;;;16.90;99.90;;;;;;4994980;28;21032;-66
2021/06/22 00:41:47;;;;;;;18.83;17.37;;;17.10;99.90;;;;;;4994959;28;20926;-67
2021/06/22 00:44:14;;;;;;;16.30;15.37;;;17.10;99.90;;;;;;4994768;28;20443;-67
2021/06/22 00:46:41;;;;;;;16.37;15.30;;;17.20;99.90;;;;;;4994720;28;20831;-65
2021/06/22 00:49:09;;;;;;;17.90;16.80;;;16.90;99.90;;;;;;4994921;28;20458;-66
2021/06/22 00:51:36;;;;;;;16.00;15.10;;;16.60;99.90;;;;;;4994363;28;20443;-66
2021/06/22 00:54:03;;;;;;;16.80;15.80;;;16.80;99.90;;;;;;4994592;28;20489;-66
2021/06/22 00:56:30;;;;;;;16.37;15.47;;;16.60;99.90;;;;;;4994169;28;20450;-66
2021/06/22 00:58:56;;;;;;;19.03;17.27;;;16.60;99.90;;;;;;4994692;28;20592;-66
2021/06/22 01:01:23;;;;;;;16.50;15.47;;;16.60;99.90;;;;;;4994624;28;20451;-65
2021/06/22 01:03:50;;;;;;;15.23;14.53;;;16.70;99.90;;;;;;4994501;28;20959;-66
2021/06/22 01:06:20;;;;;;;15.63;14.87;;;16.80;99.90;;;;;;4994438;28;20447;-66
2021/06/22 01:08:47;;;;;;;15.57;14.77;;;17.10;99.90;;;;;;4994672;28;20446;-66
2021/06/22 01:11:14;;;;;;;15.23;14.33;;;17.20;99.90;;;;;;4994627;28;20451;-65
2021/06/22 01:13:41;;;;;;;16.30;15.27;;;17.10;99.90;;;;;;4994220;28;20478;-66
2021/06/22 01:16:20;;;;;;;14.60;13.90;;;17.00;99.90;;;;;;4994488;28;20454;-67
2021/06/22 01:18:46;;;;;;;15.90;15.00;;;16.90;99.90;;;;;;4994464;28;20570;-66
2021/06/22 01:21:14;;;;;;;14.37;13.57;;;17.10;99.90;;;;;;4994163;28;20447;-66
2021/06/22 01:23:41;;;;;;;13.90;13.20;;;17.10;99.90;;;;;;4994234;28;20498;-67
2021/06/22 01:26:08;;;;;;;14.67;13.97;;;17.00;99.90;;;;;;4994105;28;20496;-66
2021/06/22 01:28:35;;;;;;;14.80;13.97;;;17.30;99.90;;;;;;4994278;28;20450;-66
2021/06/22 01:31:02;;;;;;;13.87;13.17;;;17.10;99.90;;;;;;4994146;28;20446;-66
2021/06/22 01:33:29;;;;;;;13.80;13.10;;;17.20;99.90;;;;;;4993705;28;20840;-67
2021/06/22 01:35:56;;;;;;;14.43;13.63;;;17.00;99.90;;;;;;4993628;28;20450;-66
2021/06/22 01:38:24;;;;;;;14.77;13.83;;;17.00;99.90;;;;;;4993808;28;20505;-67
2021/06/22 01:40:51;;;;;;;14.33;13.73;;;17.10;99.90;;;;;;4994071;28;20450;-66
2021/06/22 01:43:18;;;;;;;14.37;13.50;;;16.90;99.90;;;;;;4993675;28;20474;-66
2021/06/22 01:45:46;;;;;;;12.70;12.27;;;16.90;99.90;;;;;;4993752;28;20455;-66
2021/06/22 01:48:12;;;;;;;14.50;13.80;;;16.80;99.90;;;;;;4993587;28;20960;-66
2021/06/22 01:50:39;;;;;;;13.83;13.17;;;16.60;99.90;;;;;;4993889;28;20840;-65
2021/06/22 01:53:06;;;;;;;13.83;13.33;;;16.60;99.90;;;;;;4993424;28;20478;-67
2021/06/22 01:55:38;;;;;;;13.80;13.20;;;16.60;99.90;;;;;;4993714;28;20450;-66
2021/06/22 01:58:06;;;;;;;13.10;12.67;;;16.60;99.90;;;;;;4993530;28;21038;-66
2021/06/22 02:00:33;;;;;;;13.57;13.03;;;16.80;99.90;;;;;;4993634;28;20936;-66
2021/06/22 02:03:00;;;;;;;14.80;14.10;;;17.00;99.90;;;;;;4993229;28;20529;-66
2021/06/22 02:05:27;;;;;;;15.27;14.27;;;16.90;99.90;;;;;;4993952;28;20454;-66
2021/06/22 02:07:54;;;;;;;14.87;14.20;;;17.10;99.90;;;;;;4993294;28;20450;-66
2021/06/22 02:10:21;;;;;;;14.80;13.90;;;17.20;99.90;;;;;;4993416;28;20439;-66
2021/06/22 02:12:49;;;;;;;14.30;13.80;;;16.90;99.90;;;;;;4993150;28;20466;-66
2021/06/22 02:15:17;;;;;;;14.03;13.33;;;17.00;99.90;;;;;;4993198;28;20516;-66
2021/06/22 02:17:44;;;;;;;15.23;14.33;;;16.90;99.90;;;;;;4992669;28;20935;-66
2021/06/22 02:20:12;;;;;;;13.97;13.47;;;16.80;99.90;;;;;;4993074;28;20493;-66
2021/06/22 02:22:39;;;;;;;15.10;14.17;;;16.80;99.90;;;;;;4992734;28;20475;-66
2021/06/22 02:25:08;;;;;;;14.23;13.63;;;16.80;99.90;;;;;;4993115;28;20809;-66
2021/06/22 02:27:36;;;;;;;15.20;14.17;;;16.70;99.90;;;;;;4992834;28;20812;-66
2021/06/22 02:30:06;;;;;;;14.57;13.83;;;16.50;99.90;;;;;;4993153;28;20439;-66
2021/06/22 02:32:33;;;;;;;14.87;14.17;;;16.60;99.90;;;;;;4992828;28;20489;-65
2021/06/22 02:35:00;;;;;;;15.10;14.30;;;16.50;99.90;;;;;;4992587;28;20458;-65
2021/06/22 02:37:26;;;;;;;14.10;13.60;;;16.30;99.90;;;;;;4992728;28;20451;-66
2021/06/22 02:39:53;;;;;;;14.17;13.57;;;16.30;99.90;;;;;;4992993;28;20479;-66
2021/06/22 02:42:20;;;;;;;14.97;14.00;;;16.40;99.90;;;;;;4993072;28;20822;-65
2021/06/22 02:44:46;;;;;;;15.17;14.47;;;16.40;99.90;;;;;;4992790;28;20447;-66
2021/06/22 02:47:14;;;;;;;15.80;14.93;;;16.50;99.90;;;;;;4992396;28;20458;-66
2021/06/22 02:49:41;;;;;;;14.17;13.40;;;16.50;99.90;;;;;;4992683;28;20443;-65
2021/06/22 02:52:09;;;;;;;14.83;13.87;;;16.40;99.90;;;;;;4992598;28;20443;-65
2021/06/22 02:54:38;;;;;;;16.07;14.93;;;16.40;99.90;;;;;;4992307;28;20971;-66
2021/06/22 02:57:06;;;;;;;14.97;14.20;;;16.20;99.90;;;;;;4992490;28;20458;-66
2021/06/22 02:59:33;;;;;;;15.67;14.60;;;16.20;99.90;;;;;;4992140;28;20485;-66
2021/06/22 03:02:00;;;;;;;14.70;14.10;;;16.00;99.90;;;;;;4992561;28;20446;-66
2021/06/22 03:04:28;;;;;;;14.10;13.50;;;16.00;99.90;;;;;;4992661;28;20453;-66
2021/06/22 03:06:55;;;;;;;17.93;16.60;;;16.20;99.90;;;;;;4992402;28;20450;-66
2021/06/22 03:09:23;;;;;;;16.77;15.87;;;16.30;99.90;;;;;;4992578;28;20443;-66
2021/06/22 03:11:50;;;;;;;16.77;15.57;;;16.30;99.90;;;;;;4991978;28;20451;-66
2021/06/22 03:14:17;;;;;;;16.87;15.77;;;15.90;99.90;;;;;;4992365;28;20450;-66
2021/06/22 03:16:44;;;;;;;15.67;14.97;;;16.00;99.90;;;;;;4992214;28;20442;-66
2021/06/22 03:19:11;;;;;;;15.33;14.43;;;16.00;99.90;;;;;;4992289;28;20493;-66
2021/06/22 03:21:42;;;;;;;16.97;15.90;;;15.90;99.90;;;;;;4991916;28;20451;-66
2021/06/22 03:24:09;;;;;;;17.67;16.60;;;15.80;99.90;;;;;;4992128;28;20463;-66
2021/06/22 03:26:36;;;;;;;15.03;14.33;;;15.70;99.90;;;;;;4992020;28;20446;-65
2021/06/22 03:29:03;;;;;;;16.47;15.77;;;15.80;99.90;;;;;;4992478;28;20441;-65
2021/06/22 03:31:30;;;;;;;16.10;15.17;;;15.90;99.90;;;;;;4996322;28;20469;-67
2021/06/22 03:33:59;;;;;;;16.10;15.40;;;16.10;99.90;;;;;;4995974;28;20462;-67
2021/06/22 03:36:26;;;;;;;15.60;14.90;;;16.10;99.90;;;;;;4995966;28;20450;-66
2021/06/22 03:38:54;;;;;;;15.47;14.87;;;16.20;99.90;;;;;;4995961;28;20838;-67
2021/06/22 03:41:21;;;;;;;17.30;16.30;;;16.40;99.90;;;;;;4996264;28;20457;-67
2021/06/22 03:43:48;;;;;;;16.10;15.30;;;16.40;99.90;;;;;;4995989;28;20839;-66
2021/06/22 03:46:17;;;;;;;16.33;15.20;;;16.30;99.90;;;;;;4995901;28;20824;-67
2021/06/22 03:48:44;;;;;;;16.60;15.70;;;16.30;99.90;;;;;;4995887;28;20505;-66
2021/06/22 03:51:11;;;;;;;17.10;16.00;;;16.20;99.90;;;;;;4996008;28;20449;-67
2021/06/22 03:53:38;;;;;;;16.03;15.23;;;16.10;99.90;;;;;;4995798;28;20489;-67
2021/06/22 03:56:06;;;;;;;16.53;15.63;;;16.20;99.90;;;;;;4995690;28;20446;-65
2021/06/22 03:58:33;;;;;;;16.87;15.77;;;16.40;99.90;;;;;;4995415;28;20862;-66
2021/06/22 04:01:00;;;;;;;17.13;16.00;;;16.40;99.90;;;;;;4995587;28;20988;-67
2021/06/22 04:03:27;;;;;;;16.97;16.13;;;16.20;99.90;;;;;;4995457;28;20467;-66
2021/06/22 04:05:54;;;;;;;17.20;16.40;;;16.40;99.90;;;;;;4995678;28;20446;-67
2021/06/22 04:08:21;;;;;;;17.93;16.70;;;16.60;99.90;;;;;;4993758;28;20449;-67
2021/06/22 04:10:48;;;;;;;17.33;16.47;;;16.60;99.90;;;;;;4994181;28;20445;-67
2021/06/22 04:13:16;;;;;;;16.50;15.70;;;16.50;99.90;;;;;;4995099;28;20474;-67
2021/06/22 04:15:42;;;;;;;17.90;16.20;;;16.20;99.90;;;;;;4995504;28;20818;-67
2021/06/22 04:18:12;;;;;;;17.30;16.30;;;16.00;99.90;;;;;;4995401;28;20450;-66
2021/06/22 04:20:40;;;;;;;17.43;16.33;;;15.80;99.90;;;;;;4995236;28;20478;-67
2021/06/22 04:23:07;;;;;;;16.73;15.73;;;15.70;99.90;;;;;;4995058;28;20481;-66
2021/06/22 04:25:35;;;;;;;16.13;15.23;;;15.70;99.90;;;;;;4994992;28;20451;-67
2021/06/22 04:28:02;;;;;;;17.17;16.03;;;15.80;99.90;;;;;;4995065;28;20454;-66
2021/06/22 04:30:30;;;;;;;17.33;16.50;;;15.60;99.90;;;;;;4995303;28;20950;-66
2021/06/22 04:32:57;;;;;;;17.80;16.53;;;15.50;99.90;;;;;;4995002;28;20474;-66
2021/06/22 04:35:25;;;;;;;17.93;16.70;;;15.40;99.90;;;;;;4995204;28;20473;-66
2021/06/22 04:37:52;;;;;;;17.53;16.13;;;15.30;99.90;;;;;;4994415;28;20517;-66
2021/06/22 04:40:19;;;;;;;18.27;16.70;;;15.20;99.90;;;;;;4994448;28;20478;-66
2021/06/22 04:42:45;;;;;;;17.13;16.20;;;15.20;99.90;;;;;;4994854;28;20470;-66
2021/06/22 04:45:12;;;;;;;18.23;16.80;;;15.20;99.90;;;;;;4995020;28;20450;-66
2021/06/22 04:47:41;;;;;;;18.17;17.17;;;15.20;99.90;;;;;;4994296;28;20821;-67
2021/06/22 04:50:09;;;;;;;19.13;17.83;;;15.30;99.90;;;;;;4994796;28;20443;-67
2021/06/22 04:52:36;;;;;;;18.33;17.33;;;15.30;99.90;;;;;;4994704;28;20903;-66
2021/06/22 04:55:04;;;;;;;17.63;16.83;;;15.20;99.90;;;;;;4994765;28;20449;-67
2021/06/22 04:57:31;;;;;;;18.90;17.80;;;15.20;99.90;;;;;;4994199;28;20454;-66
2021/06/22 04:59:58;;;;;;;18.43;17.23;;;15.30;99.90;;;;;;4994306;28;20510;-67
2021/06/22 05:02:24;;;;;;;18.33;17.23;;;15.30;99.90;;;;;;4994411;28;20474;-67
2021/06/22 05:04:53;;;;;;;18.53;17.37;;;15.30;99.90;;;;;;4994556;28;20461;-66
2021/06/22 05:07:20;;;;;;;19.33;17.77;;;15.40;99.90;;;;;;4994274;28;20450;-67
2021/06/22 05:09:46;;;;;;;19.10;17.90;;;15.50;99.90;;;;;;4993834;28;20447;-66
2021/06/22 05:12:13;;;;;;;19.53;18.20;;;15.50;99.90;;;;;;4993800;28;20485;-67
2021/06/22 05:14:40;;;;;;;20.47;18.70;;;15.70;99.90;;;;;;4994471;28;20443;-66
2021/06/22 05:17:07;;;;;;;20.40;18.57;;;15.70;99.90;;;;;;4994213;28;20443;-67
2021/06/22 05:19:33;;;;;;;19.00;17.70;;;15.50;99.90;;;;;;4994192;28;20479;-67
2021/06/22 05:22:01;;;;;;;19.30;18.00;;;15.70;99.90;;;;;;4993733;28;20450;-67
2021/06/22 05:24:28;;;;;;;19.73;18.50;;;15.60;99.90;;;;;;4994557;28;20819;-66
2021/06/22 05:26:55;;;;;;;19.47;18.37;;;15.70;99.90;;;;;;4993838;28;20446;-67
2021/06/22 05:29:21;;;;;;;20.80;19.40;;;15.80;99.90;;;;;;4993956;28;20470;-67
2021/06/22 05:31:48;;;;;;;20.20;18.90;;;15.90;99.90;;;;;;4993960;28;20447;-67
2021/06/22 05:34:15;;;;;;;19.30;18.20;;;15.80;99.90;;;;;;4993486;28;20467;-66
2021/06/22 05:36:41;;;;;;;20.33;18.70;;;15.80;99.90;;;;;;4993740;28;20443;-66
2021/06/22 05:39:09;;;;;;;20.30;18.93;;;15.80;99.90;;;;;;4993779;28;20447;-66
2021/06/22 05:41:36;;;;;;;20.80;19.20;;;15.90;99.90;;;;;;4993868;28;20454;-67
2021/06/22 05:44:03;;;;;;;19.00;18.10;;;16.00;99.90;;;;;;4993329;28;20556;-67
2021/06/22 05:46:30;;;;;;;21.67;19.77;;;16.00;99.90;;;;;;4993808;28;20446;-67
2021/06/22 05:48:57;;;;;;;20.53;19.30;;;16.00;99.90;;;;;;4993410;28;20451;-67
2021/06/22 05:51:24;;;;;;;21.97;20.27;;;15.80;99.90;;;;;;4993410;28;20816;-67
2021/06/22 05:53:51;;;;;;;20.13;19.10;;;15.80;99.90;;;;;;4992938;28;20471;-67
2021/06/22 05:56:19;;;;;;;20.37;18.93;;;15.80;99.90;;;;;;4993314;28;20462;-66
2021/06/22 05:58:46;;;;;;;20.73;19.30;;;15.80;99.90;;;;;;4993014;28;20466;-66
2021/06/22 06:01:12;;;;;;;23.60;22.20;;;15.90;99.90;;;;;;4993135;28;20486;-66
2021/06/22 06:03:39;;;;;;;21.37;19.70;;;16.10;99.90;;;;;;4993287;28;21038;-67
2021/06/22 06:06:06;;;;;;;20.83;19.57;;;16.30;99.90;;;;;;4993356;28;20447;-66
2021/06/22 06:08:33;;;;;;;22.60;21.10;;;16.30;99.90;;;;;;4992874;28;20454;-66
2021/06/22 06:11:00;;;;;;;21.83;20.10;;;16.40;99.90;;;;;;4993229;28;20798;-66
2021/06/22 06:13:31;;;;;;;22.57;21.07;;;16.40;99.90;;;;;;4993003;28;20463;-66
2021/06/22 06:15:58;;;;;;;23.47;21.70;;;16.40;99.90;;;;;;4993180;28;20451;-67
2021/06/22 06:18:25;;;;;;;23.70;22.30;;;16.50;99.90;;;;;;4992610;28;20454;-67
2021/06/22 06:20:51;;;;;;;23.97;21.73;;;16.50;99.90;;;;;;4993030;28;20482;-66
2021/06/22 06:23:19;;;;;;;22.53;21.03;;;16.70;99.90;;;;;;4992774;28;20478;-67
2021/06/22 06:25:46;;;;;;;21.97;20.60;;;16.90;99.90;;;;;;4991624;28;20957;-67
2021/06/22 06:28:15;;;;;;;21.97;20.67;;;16.90;99.90;;;;;;4992554;28;20451;-66
2021/06/22 06:30:43;;;;;;;21.17;20.07;;;17.00;99.90;;;;;;4992836;28;20451;-67
2021/06/22 06:33:12;;;;;;;22.10;20.73;;;16.80;99.90;;;;;;4992674;28;20831;-67
2021/06/22 06:35:39;;;;;;;21.50;20.10;;;16.90;99.90;;;;;;4992878;28;20450;-66
2021/06/22 06:38:06;;;;;;;24.13;22.03;;;17.10;99.90;;;;;;4992664;28;20439;-67
2021/06/22 06:40:34;;;;;;;22.37;20.90;;;17.20;99.90;;;;;;4992337;28;20991;-67
2021/06/22 06:43:01;;;;;;;21.80;20.57;;;17.20;99.90;;;;;;4992737;28;20474;-67
2021/06/22 06:45:28;;;;;;;23.17;21.77;;;17.10;99.90;;;;;;4992700;28;20470;-66
2021/06/22 06:47:56;;;;;;;24.00;22.40;;;17.00;99.90;;;;;;4992424;28;20447;-67
2021/06/22 06:50:23;;;;;;;22.97;21.30;;;17.00;99.90;;;;;;4992369;28;20446;-67
2021/06/22 06:52:50;;;;;;;22.83;21.27;;;17.10;99.90;;;;;;4992389;28;20844;-65
2021/06/22 06:55:26;;;;;;;22.37;21.00;;;17.00;99.90;;;;;;4992666;28;20455;-67
2021/06/22 06:57:55;;;;;;;22.93;21.37;;;17.00;99.90;;;;;;4992309;28;20446;-67
2021/06/22 07:00:23;;;;;;;21.80;20.43;;;17.20;99.90;;;;;;4992291;28;21034;-67
2021/06/22 07:02:50;;;;;;;23.93;22.23;;;17.40;99.90;;;;;;4992071;28;20474;-66
2021/06/22 07:05:18;;;;;;;24.40;22.80;;;17.30;99.90;;;;;;4992135;28;20451;-66
2021/06/22 07:07:45;;;;;;;24.63;22.77;;;17.20;99.90;;;;;;4992251;28;20443;-67
2021/06/22 07:10:13;;;;;;;22.30;21.10;;;17.30;99.90;;;;;;4992356;28;20820;-67
2021/06/22 07:12:40;;;;;;;25.87;24.17;;;17.40;99.90;;;;;;4992149;28;20832;-67
2021/06/22 07:15:08;;;;;;;23.47;21.80;;;17.30;99.90;;;;;;4992037;28;20520;-66
2021/06/22 07:17:35;;;;;;;24.60;23.07;;;17.50;99.90;;;;;;4992020;28;20443;-66
2021/06/22 07:20:02;;;;;;;24.70;22.97;;;17.60;99.90;;;;;;4992158;28;20471;-67
2021/06/22 07:22:30;;;;;;;23.80;22.30;;;17.80;99.90;;;;;;4991947;28;20876;-67
2021/06/22 07:24:57;;;;;;;23.97;22.17;;;17.80;99.90;;;;;;4992290;28;20458;-66
2021/06/22 07:27:23;;;;;;;24.13;22.83;;;18.00;99.90;;;;;;4991545;28;20473;-67
2021/06/22 07:29:50;;;;;;;25.47;23.73;;;18.10;99.90;;;;;;4992077;28;20446;-66
2021/06/22 07:32:17;;;;;;;24.77;23.30;;;18.20;99.90;;;;;;4991812;28;20512;-66
2021/06/22 07:34:43;;;;;;;25.33;23.33;;;18.20;99.90;;;;;;4992058;28;20450;-66
2021/06/22 07:37:10;;;;;;;24.77;22.90;;;18.20;99.90;;;;;;4991852;28;20929;-66
2021/06/22 07:39:38;;;;;;;25.70;24.20;;;18.30;99.90;;;;;;4991697;28;20458;-67
2021/06/22 07:42:05;;;;;;;25.80;24.00;;;18.60;99.90;;;;;;4991954;28;20482;-67
2021/06/22 07:44:31;;;;;;;25.03;23.43;;;18.60;99.90;;;;;;4991954;28;20453;-67
2021/06/22 07:46:58;;;;;;;24.67;22.87;;;18.60;99.90;;;;;;4991816;28;20446;-67
2021/06/22 07:49:25;;;;;;;25.80;24.03;;;18.40;99.90;;;;;;4991922;28;20454;-66
2021/06/22 07:51:52;;;;;;;26.40;24.57;;;18.50;99.90;;;;;;4991701;28;20465;-67
2021/06/22 07:54:19;;;;;;;25.20;23.73;;;18.60;99.90;;;;;;4991800;28;20443;-67
2021/06/22 07:56:47;;;;;;;24.83;23.23;;;18.60;99.90;;;;;;4991845;28;20447;-67
2021/06/22 07:59:14;;;;;;;24.90;23.50;;;18.30;99.90;;;;;;4991685;28;20447;-67
2021/06/22 08:01:40;;;;;;;24.20;22.80;;;18.40;99.90;;;;;;4991774;28;20490;-67
2021/06/22 08:04:07;;;;;;;24.00;22.60;;;18.60;99.90;;;;;;4991253;28;20466;-66
2021/06/22 08:06:34;;;;;;;23.33;22.03;;;18.70;99.90;;;;;;4991698;28;20450;-66
2021/06/22 08:09:00;;;;;;;24.63;23.10;;;18.90;99.90;;;;;;4991575;28;20443;-67
2021/06/22 08:11:27;;;;;;;25.33;23.30;;;19.10;99.90;;;;;;4991756;28;20443;-66
2021/06/22 08:13:55;;;;;;;23.27;22.07;;;19.20;99.90;;;;;;4991815;28;20463;-66
2021/06/22 08:16:22;;;;;;;23.97;22.53;;;19.50;99.90;;;;;;4993613;28;20447;-67
2021/06/22 08:18:48;;;;;;;23.80;22.60;;;19.60;99.70;;;;;;4995378;28;20450;-67
2021/06/22 08:21:15;;;;;;;22.90;21.80;;;19.60;99.90;;;;;;4995332;28;20494;-67
2021/06/22 08:23:42;;;;;;;23.70;22.30;;;19.60;99.30;;;;;;4995283;28;20478;-67
2021/06/22 08:26:10;;;;;;;23.17;22.00;;;19.60;99.40;;;;;;4995277;28;20446;-67
2021/06/22 08:28:37;;;;;;;21.87;20.80;;;19.70;98.60;;;;;;4994865;28;20450;-67
2021/06/22 08:31:05;;;;;;;23.07;21.80;;;19.70;97.90;;;;;;4995240;28;20435;-67
2021/06/22 08:33:31;;;;;;;23.07;21.83;;;20.00;98.20;;;;;;4995195;28;20473;-68
2021/06/22 08:35:58;;;;;;;22.90;21.57;;;20.30;97.80;;;;;;4994873;28;20458;-66
2021/06/22 08:38:25;;;;;;;23.40;22.30;;;20.20;95.60;;;;;;4994551;28;20453;-68
2021/06/22 08:40:51;;;;;;;22.27;21.10;;;20.50;95.60;;;;;;4994994;28;20475;-67
2021/06/22 08:43:18;;;;;;;22.57;21.57;;;20.60;95.40;;;;;;4995026;28;20973;-66
2021/06/22 08:45:46;;;;;;;23.17;22.07;;;20.80;94.60;;;;;;4995036;28;20447;-67
2021/06/22 08:48:15;;;;;;;24.00;22.70;;;21.20;94.30;;;;;;4994269;28;20454;-67
2021/06/22 08:50:43;;;;;;;25.87;24.27;;;21.40;93.10;;;;;;4994899;28;20443;-67
2021/06/22 08:53:10;;;;;;;23.60;22.10;;;21.30;92.10;;;;;;4994633;28;20488;-67
2021/06/22 08:55:37;;;;;;;24.77;23.50;;;21.50;92.30;;;;;;4994790;28;20443;-67
2021/06/22 08:58:05;;;;;;;23.73;22.30;;;21.50;90.90;;;;;;4994539;28;20442;-67
2021/06/22 09:00:35;;;;;;;23.33;22.00;;;20.90;91.50;;;;;;4994064;28;20490;-67
2021/06/22 09:03:05;;;;;;;23.97;22.73;;;20.70;91.80;;;;;;4993776;28;21063;-66
2021/06/22 09:05:33;;;;;;;23.87;22.67;;;20.80;92.30;;;;;;4994553;28;20931;-67
2021/06/22 09:08:00;;;;;;;24.73;23.03;;;21.00;91.60;;;;;;4994351;28;20450;-68
2021/06/22 09:10:30;;;;;;;23.17;22.07;;;21.00;90.70;;;;;;4994275;28;20550;-67
2021/06/22 09:12:58;;;;;;;22.60;21.40;;;21.10;91.30;;;;;;4979224;28;20467;-67
2021/06/22 09:15:29;;;;;;;23.20;22.10;;;21.40;91.60;;;;;;4994365;28;20447;-67
2021/06/22 09:17:56;;;;;;;21.73;20.63;;;21.20;89.70;;;;;;4994119;28;20458;-67
2021/06/22 09:20:37;;;;;;;23.40;22.07;;;20.90;90.30;;;;;;4994265;28;20597;-68
2021/06/22 09:23:15;;;;;;;23.03;21.87;;;20.80;91.00;;;;;;4993786;28;20509;-67
2021/06/22 09:25:43;;;;;;;22.10;21.00;;;20.90;91.20;;;;;;4994090;28;20497;-67
2021/06/22 09:28:10;;;;;;;22.70;21.60;;;21.10;89.70;;;;;;4994011;28;20457;-67
2021/06/22 09:30:46;;;;;;;22.60;21.30;;;21.20;90.00;;;;;;4993894;28;20826;-66
2021/06/22 09:33:26;;;;;;;25.13;23.40;;;21.00;90.20;;;;;;4993707;28;20471;-67
2021/06/22 09:36:16;;;;;;;23.97;22.80;;;21.10;90.10;;;;;;4993705;28;20801;-67
2021/06/22 09:38:45;;;;;;;23.80;22.50;;;21.20;90.20;;;;;;4989438;28;20462;-66
2021/06/22 09:41:16;;;;;;;24.53;23.20;;;21.40;88.60;;;;;;4993700;28;20479;-67
2021/06/22 09:43:45;;;;;;;25.40;23.80;;;21.30;89.60;;;;;;4993767;28;20878;-68
2021/06/22 09:46:14;;;;;;;22.60;21.50;;;21.40;89.40;;;;;;4993737;28;20446;-67
2021/06/22 09:48:42;;;;;;;25.90;24.10;;;21.80;88.00;;;;;;4993239;28;20885;-67
2021/06/22 09:51:09;;;;;;;22.67;21.40;;;22.00;85.60;;;;;;4993610;28;20449;-67
2021/06/22 09:53:37;;;;;;;24.33;22.60;;;21.80;85.20;;;;;;4993481;28;20494;-66
2021/06/22 09:56:05;;;;;;;23.17;21.77;;;21.30;85.70;;;;;;4993555;28;20443;-67
2021/06/22 09:58:38;;;;;;;23.13;21.73;;;21.00;87.60;;;;;;4993033;28;20458;-67
2021/06/22 10:01:05;;;;;;;23.80;22.07;;;20.80;89.80;;;;;;4993507;28;20493;-68
2021/06/22 10:03:36;;;;;;;23.27;22.07;;;20.70;90.00;;;;;;4993324;28;20478;-67
2021/06/22 10:06:06;;;;;;;23.20;21.80;;;21.00;90.70;;;;;;4993045;28;20447;-67
2021/06/22 10:08:53;;;;;;;23.33;22.13;;;21.00;89.70;;;;;;4993066;28;20822;-66
2021/06/22 10:11:34;;;;;;;22.77;21.67;;;20.90;90.80;;;;;;4992998;28;20450;-67
2021/06/22 10:14:02;;;;;;;23.40;22.07;;;21.00;89.70;;;;;;4993041;28;20466;-67
2021/06/22 10:16:31;;;;;;;24.40;23.13;;;21.10;90.20;;;;;;4992879;28;20512;-68
2021/06/22 10:18:59;;;;;;;22.10;21.20;;;21.40;89.30;;;;;;4992893;28;20801;-66
2021/06/22 10:21:26;;;;;;;21.90;20.90;;;21.60;89.20;;;;;;4993019;28;20510;-67
2021/06/22 10:23:55;;;;;;;21.50;20.40;;;21.70;87.30;;;;;;4993014;28;20482;-66
2021/06/22 10:26:25;;;;;;;22.77;21.67;;;21.10;87.50;;;;;;4993065;28;20527;-67
2021/06/22 10:28:52;;;;;;;22.70;21.30;;;21.30;87.70;;;;;;4992378;28;20455;-67
2021/06/22 10:31:20;;;;;;;22.83;21.43;;;21.80;86.70;;;;;;4992720;28;20462;-67
2021/06/22 10:33:46;;;;;;;22.03;20.93;;;22.00;83.00;;;;;;4992756;28;20462;-66
2021/06/22 10:36:22;;;;;;;22.33;21.33;;;22.90;83.70;;;;;;4992725;28;20473;-67
2021/06/22 10:38:51;;;;;;;21.80;20.70;;;23.10;79.90;;;;;;4992208;28;20450;-67
2021/06/22 10:41:20;;;;;;;22.60;21.63;;;23.10;79.20;;;;;;4992259;28;20987;-66
2021/06/22 10:43:48;;;;;;;21.87;20.77;;;23.30;76.20;;;;;;4992677;28;20927;-67
2021/06/22 10:46:17;;;;;;;23.73;22.10;;;23.00;75.90;;;;;;4992545;28;20461;-66
2021/06/22 10:48:46;;;;;;;21.27;20.17;;;22.30;74.90;;;;;;4992455;28;20454;-67
2021/06/22 10:51:42;;;;;;;22.57;21.20;;;22.00;75.20;;;;;;4992507;28;20552;-66
2021/06/22 10:54:09;;;;;;;22.97;21.80;;;22.00;78.30;;;;;;4992283;28;21009;-67
2021/06/22 10:56:42;;;;;;;24.20;22.77;;;22.30;76.50;;;;;;4992354;28;20959;-67
2021/06/22 10:59:26;;;;;;;23.80;22.50;;;22.40;76.10;;;;;;4992319;28;20443;-67
2021/06/22 11:02:03;;;;;;;23.40;22.30;;;22.80;76.00;;;;;;4992200;28;20478;-67
2021/06/22 11:04:30;;;;;;;22.53;21.33;;;22.90;75.80;;;;;;4992378;28;20506;-67
2021/06/22 11:07:17;;;;;;;24.80;23.23;;;23.00;76.20;;;;;;4992092;28;20455;-68
2021/06/22 11:10:10;;;;;;;24.80;23.40;;;21.80;76.10;;;;;;4992365;28;20816;-67
2021/06/22 11:12:53;;;;;;;24.67;23.37;;;21.10;79.60;;;;;;4992085;28;20463;-66
2021/06/22 11:15:21;;;;;;;24.53;23.07;;;20.90;81.60;;;;;;4992193;28;20450;-66
2021/06/22 11:18:00;;;;;;;24.23;22.83;;;21.40;82.90;;;;;;4991860;28;20876;-67
2021/06/22 11:20:31;;;;;;;23.73;22.63;;;21.80;79.10;;;;;;4991877;28;20451;-67
2021/06/22 11:23:09;;;;;;;24.77;23.47;;;22.70;77.70;;;;;;5014999;23;20490;-66
2021/06/22 11:25:47;;;;;;;23.10;22.00;;;23.80;74.20;;;;;;4991928;28;20455;-66
2021/06/22 11:28:15;;;;;;;23.73;22.40;;;24.30;69.30;;;;;;4991671;28;20955;-66
2021/06/22 11:30:57;;;;;;;22.87;21.63;;;24.20;67.80;;;;;;4992095;28;20446;-66
2021/06/22 11:33:44;;;;;;;24.00;22.73;;;24.20;66.80;;;;;;4992242;28;20463;-66
2021/06/22 11:36:34;;;;;;;22.47;21.30;;;23.70;68.00;;;;;;4991763;28;20886;-67
2021/06/22 11:39:20;;;;;;;22.80;21.70;;;23.20;69.00;;;;;;4991823;28;20458;-66
2021/06/22 11:42:21;;;;;;;24.23;22.73;;;22.50;70.00;;;;;;4992010;28;20486;-66
2021/06/22 11:44:53;;;;;;;22.00;20.90;;;22.30;73.00;;;;;;4991843;28;20466;-66
2021/06/22 11:47:55;;;;;;;21.33;20.43;;;21.70;73.40;;;;;;4991426;28;20550;-66
2021/06/22 11:50:30;;;;;;;21.97;20.87;;;21.30;75.70;;;;;;4992594;28;20450;-66
2021/06/22 11:53:09;;;;;;;21.10;20.20;;;21.40;78.80;;;;;;4995641;28;20466;-66
2021/06/22 11:55:57;;;;;;;21.80;20.60;;;21.40;79.70;;;;;;4995196;28;20816;-66
2021/06/22 11:58:25;;;;;;;22.10;20.67;;;21.80;79.70;;;;;;4995780;28;20454;-67
2021/06/22 12:00:57;;;;;;;23.20;21.90;;;22.40;78.70;;;;;;4995578;28;20867;-66
2021/06/22 12:03:30;;;;;;;22.57;21.37;;;22.20;76.20;;;;;;4995363;28;20837;-66
2021/06/22 12:06:09;;;;;;;23.80;22.47;;;21.90;77.60;;;;;;4995380;28;20473;-66
2021/06/22 12:08:38;;;;;;;24.40;22.77;;;21.50;78.50;;;;;;4995288;28;20446;-66
2021/06/22 12:11:05;;;;;;;22.67;21.27;;;21.60;80.00;;;;;;4995451;28;20504;-66
2021/06/22 12:13:33;;;;;;;23.30;22.10;;;21.40;81.60;;;;;;4994858;28;20466;-66
2021/06/22 12:16:17;;;;;;;21.67;20.40;;;21.20;81.50;;;;;;4995113;28;20451;-66
2021/06/22 12:18:44;;;;;;;22.10;21.00;;;21.00;83.00;;;;;;4994994;28;20477;-66
2021/06/22 12:21:10;;;;;;;22.37;21.10;;;20.90;83.60;;;;;;4995209;28;20451;-66
2021/06/22 12:23:40;;;;;;;22.47;21.17;;;20.70;85.30;;;;;;4994625;28;20486;-66
2021/06/22 12:26:07;;;;;;;21.40;20.30;;;20.40;87.20;;;;;;4995118;28;20537;-66
2021/06/22 12:28:35;;;;;;;20.97;19.90;;;20.50;88.70;;;;;;4995079;28;20450;-66
2021/06/22 12:31:03;;;;;;;21.10;20.10;;;20.50;87.60;;;;;;4995011;28;20447;-66
2021/06/22 12:33:37;;;;;;;22.30;21.00;;;20.60;84.80;;;;;;4994476;28;20466;-66
2021/06/22 12:36:07;;;;;;;20.63;19.67;;;20.90;86.50;;;;;;4995081;28;20458;-66